createdAt,value
2022-12-05T10:16:00.122Z,19.00
2022-12-05T10:18:47.639Z,18.40
2022-12-05T10:34:35.362Z,16.40
2022-12-05T10:38:01.849Z,18.30
2022-12-05T10:44:13.936Z,18.20
2022-12-05T10:59:59.325Z,18.20
2022-12-05T11:02:34.284Z,18.00
2022-12-05T11:06:56.572Z,19.70
2022-12-05T11:13:59.818Z,17.30
2022-12-05T11:17:33.252Z,17.30
2022-12-05T11:32:41.385Z,24.30
2022-12-05T11:40:29.463Z,21.70
2022-12-05T11:48:36.155Z,18.90
2022-12-05T11:51:31.755Z,20.10
2022-12-05T12:30:12.978Z,25.20
2022-12-05T12:34:02.392Z,26.40
2022-12-05T12:41:46.415Z,26.80
2022-12-05T12:50:41.872Z,30.20
2022-12-05T13:12:17.845Z,33.30
2022-12-05T13:15:53.048Z,29.10
2022-12-05T13:46:14.303Z,28.30
2022-12-05T13:57:02.686Z,30.80
2022-12-05T14:00:38.464Z,30.80
2022-12-05T14:17:10.889Z,28.60
2022-12-05T14:29:26.644Z,27.30
2022-12-05T14:36:33.967Z,29.50
2022-12-05T14:44:17.258Z,28.50
2022-12-05T15:13:05.913Z,37.50
2022-12-05T15:32:32.081Z,47.60
2022-12-05T15:35:57.303Z,45.70
2022-12-05T16:15:02.202Z,66.30
2022-12-05T16:26:58.071Z,72.40
2022-12-05T16:33:43.520Z,61.90
2022-12-05T16:37:08.319Z,60.70
2022-12-05T16:40:04.962Z,53.00
2022-12-05T16:42:39.725Z,54.00
2022-12-05T16:46:10.429Z,53.40
2022-12-05T16:51:48.827Z,51.70
2022-12-05T16:54:28.296Z,53.50
2022-12-05T16:57:01.977Z,56.00
2022-12-05T16:59:36.752Z,57.20
2022-12-05T17:02:16.262Z,56.60
2022-12-05T17:04:48.979Z,77.30
2022-12-05T17:07:21.448Z,76.60
2022-12-05T17:09:53.803Z,75.20
2022-12-05T17:12:32.174Z,71.10
2022-12-05T17:15:08.052Z,93.60
2022-12-05T17:17:40.416Z,85.50
2022-12-05T17:20:13.979Z,82.60
2022-12-05T17:22:47.003Z,76.60
2022-12-05T17:25:31.556Z,75.80
2022-12-05T17:28:03.995Z,66.80
2022-12-05T17:30:41.259Z,65.10
2022-12-05T17:33:15.990Z,65.10
2022-12-05T17:35:52.083Z,56.30
2022-12-05T17:38:24.524Z,58.70
2022-12-05T17:40:57.430Z,57.30
2022-12-05T17:43:31.302Z,56.70
2022-12-05T17:46:04.446Z,55.70
2022-12-05T17:48:36.710Z,55.50
2022-12-05T17:51:21.841Z,55.50
2022-12-05T17:53:54.689Z,55.40
2022-12-05T17:56:27.190Z,62.80
2022-12-05T17:59:02.946Z,71.60
2022-12-05T18:01:43.349Z,75.80
2022-12-05T18:04:23.086Z,71.50
2022-12-05T18:06:59.065Z,68.00
2022-12-05T18:09:31.482Z,76.30
2022-12-05T18:15:17.782Z,75.40
2022-12-05T18:17:50.158Z,70.90
2022-12-05T18:20:22.518Z,73.20
2022-12-05T18:22:54.867Z,70.10
2022-12-05T18:25:27.267Z,73.60
2022-12-05T18:28:00.210Z,69.40
2022-12-05T18:30:32.767Z,72.00
2022-12-05T18:33:05.280Z,68.50
2022-12-05T18:35:44.494Z,71.20
2022-12-05T18:38:18.212Z,71.20
2022-12-05T18:40:52.076Z,67.50
2022-12-05T18:43:34.312Z,65.60
2022-12-05T18:46:10.436Z,62.50
2022-12-05T18:48:52.033Z,63.40
2022-12-05T18:51:25.399Z,57.60
2022-12-05T18:54:01.030Z,62.60
2022-12-05T18:56:47.968Z,64.50
2022-12-05T18:59:22.215Z,64.60
2022-12-05T19:01:56.186Z,64.80
2022-12-05T19:04:29.690Z,60.20
2022-12-05T19:07:02.994Z,64.20
2022-12-05T19:09:35.972Z,62.00
2022-12-05T19:12:08.962Z,63.50
2022-12-05T19:14:41.539Z,62.80
2022-12-05T19:17:14.590Z,66.20
2022-12-05T19:19:46.939Z,75.70
2022-12-05T19:22:19.373Z,73.70
2022-12-05T19:24:52.076Z,65.10
2022-12-05T19:27:24.929Z,62.60
2022-12-05T19:29:59.307Z,63.10
2022-12-05T19:32:35.487Z,59.30
2022-12-05T19:35:13.362Z,58.90
2022-12-05T19:37:45.716Z,58.50
2022-12-05T19:40:18.559Z,54.60
2022-12-05T19:42:50.893Z,53.70
2022-12-05T19:45:25.206Z,54.30
2022-12-05T19:48:05.491Z,53.70
2022-12-05T19:50:39.353Z,52.80
2022-12-05T19:53:21.156Z,56.40
2022-12-05T19:55:53.806Z,54.20
2022-12-05T19:58:26.481Z,52.10
2022-12-05T20:04:39.037Z,47.90
2022-12-05T20:07:13.274Z,50.80
2022-12-05T20:09:46.438Z,52.20
2022-12-05T20:12:18.932Z,52.00
2022-12-05T20:14:51.602Z,49.40
2022-12-05T20:22:16.180Z,45.50
2022-12-05T20:24:57.610Z,48.10
2022-12-05T20:28:18.606Z,46.70
2022-12-05T20:30:50.998Z,48.00
2022-12-05T20:33:27.284Z,47.50
2022-12-05T20:43:57.029Z,46.10
2022-12-05T20:47:25.826Z,47.00
2022-12-05T20:55:03.055Z,45.20
2022-12-05T20:57:36.340Z,41.40
2022-12-05T21:00:15.792Z,47.10
2022-12-05T21:03:58.029Z,45.10
2022-12-05T21:06:32.930Z,43.60
2022-12-05T21:09:54.739Z,43.30
2022-12-05T21:13:14.464Z,43.50
2022-12-05T21:20:41.818Z,42.70
2022-12-05T21:24:12.674Z,41.20
2022-12-05T21:36:10.353Z,43.30
2022-12-05T21:38:54.179Z,45.80
2022-12-05T21:46:26.900Z,44.10
2022-12-05T21:48:59.351Z,43.10
2022-12-05T21:52:12.549Z,45.60
2022-12-05T21:54:44.880Z,42.40
2022-12-05T22:01:50.889Z,39.00
2022-12-05T22:05:04.628Z,42.00
2022-12-05T22:07:39.408Z,40.50
2022-12-05T22:10:12.600Z,43.30
2022-12-05T22:12:48.894Z,42.20
2022-12-05T22:24:19.569Z,39.80
2022-12-05T22:27:57.817Z,42.30
2022-12-05T22:30:36.866Z,40.00
2022-12-05T22:33:09.145Z,41.10
2022-12-05T22:39:46.273Z,39.60
2022-12-05T22:42:18.838Z,39.10
2022-12-05T22:45:38.660Z,40.10
2022-12-05T22:48:10.917Z,39.90
2022-12-05T23:08:49.642Z,40.40
2022-12-05T23:11:22.912Z,37.30
2022-12-05T23:14:01.311Z,39.50
2022-12-05T23:20:51.995Z,40.40
2022-12-05T23:36:36.941Z,38.70
2022-12-05T23:39:17.360Z,38.50
2022-12-05T23:41:49.626Z,38.40
2022-12-05T23:44:28.087Z,34.90
2022-12-05T23:47:02.263Z,37.40
2022-12-05T23:50:05.165Z,38.00
2022-12-05T23:52:39.216Z,36.00
2022-12-05T23:55:53.535Z,37.60
2022-12-05T23:58:34.302Z,35.60
